createdAt,value
2019-04-07T00:00:07.419Z,67.87
2019-04-07T00:02:40.733Z,60.70
2019-04-07T00:05:14.634Z,55.87
2019-04-07T00:07:45.008Z,59.07
2019-04-07T00:10:16.385Z,58.03
2019-04-07T00:12:48.206Z,58.50
2019-04-07T00:15:19.435Z,60.20
2019-04-07T00:17:50.568Z,57.20
2019-04-07T00:20:23.641Z,58.00
2019-04-07T00:22:55.296Z,60.03
2019-04-07T00:25:26.576Z,62.03
2019-04-07T00:27:58.737Z,59.33
2019-04-07T00:30:30.307Z,55.40
2019-04-07T00:33:02.147Z,54.27
2019-04-07T00:35:33.604Z,55.13
2019-04-07T00:38:04.895Z,54.77
2019-04-07T00:40:35.983Z,54.23
2019-04-07T00:43:07.112Z,54.87
2019-04-07T00:45:38.338Z,56.33
2019-04-07T00:48:09.319Z,56.27
2019-04-07T00:50:40.570Z,55.60
2019-04-07T00:53:11.866Z,51.47
2019-04-07T00:55:42.938Z,49.83
2019-04-07T00:58:14.054Z,51.53
2019-04-07T01:00:45.153Z,51.37
2019-04-07T01:03:16.213Z,49.10
2019-04-07T01:05:47.832Z,49.50
2019-04-07T01:08:19.041Z,50.83
2019-04-07T01:10:50.252Z,50.03
2019-04-07T01:13:22.002Z,51.43
2019-04-07T01:15:53.047Z,48.53
2019-04-07T01:18:26.636Z,46.50
2019-04-07T01:20:57.278Z,50.53
2019-04-07T01:23:28.665Z,51.37
2019-04-07T01:25:59.709Z,54.77
2019-04-07T01:28:30.645Z,53.43
2019-04-07T01:31:02.352Z,51.53
2019-04-07T01:33:33.577Z,48.80
2019-04-07T01:36:05.252Z,47.97
2019-04-07T01:38:36.694Z,48.93
2019-04-07T01:41:20.906Z,46.20
2019-04-07T01:43:57.733Z,48.03
2019-04-07T01:46:44.600Z,44.60
2019-04-07T01:49:34.788Z,47.60
2019-04-07T01:52:13.421Z,49.07
2019-04-07T01:55:02.726Z,45.63
2019-04-07T01:57:45.358Z,49.87
2019-04-07T02:00:34.263Z,48.00
2019-04-07T02:03:23.586Z,45.07
2019-04-07T02:06:19.875Z,44.60
2019-04-07T02:09:01.929Z,45.70
2019-04-07T02:11:50.470Z,45.67
2019-04-07T02:14:41.060Z,47.17
2019-04-07T02:17:27.240Z,46.27
2019-04-07T02:20:23.237Z,43.87
2019-04-07T02:23:11.685Z,45.50
2019-04-07T02:26:04.577Z,46.17
2019-04-07T02:28:55.363Z,41.73
2019-04-07T02:31:44.210Z,43.87
2019-04-07T02:34:34.054Z,45.17
2019-04-07T02:37:33.360Z,42.87
2019-04-07T02:40:36.447Z,43.17
2019-04-07T02:43:27.328Z,44.50
2019-04-07T02:46:21.022Z,40.83
2019-04-07T02:49:10.797Z,42.97
2019-04-07T02:51:56.228Z,45.03
2019-04-07T02:54:55.203Z,44.57
2019-04-07T02:57:31.812Z,44.83
2019-04-07T03:00:22.295Z,47.83
2019-04-07T03:03:12.834Z,44.23
2019-04-07T03:06:06.827Z,41.97
2019-04-07T03:08:59.558Z,42.00
2019-04-07T03:11:58.278Z,48.60
2019-04-07T03:14:41.215Z,41.87
2019-04-07T03:17:31.762Z,40.93
2019-04-07T03:20:25.721Z,43.47
2019-04-07T03:23:11.171Z,42.83
2019-04-07T03:26:11.027Z,42.90
2019-04-07T03:28:52.792Z,40.03
2019-04-07T03:31:50.858Z,41.70
2019-04-07T03:34:46.650Z,40.23
2019-04-07T03:37:44.742Z,41.17
2019-04-07T03:40:33.475Z,43.10
2019-04-07T03:43:15.444Z,45.00
2019-04-07T03:46:03.844Z,43.73
2019-04-07T03:48:39.532Z,43.00
2019-04-07T03:51:18.983Z,43.80
2019-04-07T03:54:09.862Z,46.07
2019-04-07T03:56:54.109Z,44.13
2019-04-07T03:59:46.980Z,40.97
2019-04-07T04:02:49.023Z,45.47
2019-04-07T04:05:32.994Z,42.80
2019-04-07T04:08:13.985Z,45.43
2019-04-07T04:11:02.763Z,42.03
2019-04-07T04:13:51.360Z,40.13
2019-04-07T04:16:28.479Z,42.07
2019-04-07T04:19:00.071Z,43.60
2019-04-07T04:21:31.338Z,41.83
2019-04-07T04:24:02.202Z,44.77
2019-04-07T04:26:33.335Z,43.37
2019-04-07T04:29:04.361Z,42.53
2019-04-07T04:31:35.806Z,44.47
2019-04-07T04:34:06.878Z,42.97
2019-04-07T04:36:38.051Z,43.60
2019-04-07T04:39:10.690Z,44.70
2019-04-07T04:41:42.495Z,46.03
2019-04-07T04:44:14.549Z,44.00
2019-04-07T04:46:45.468Z,44.63
2019-04-07T04:49:16.981Z,40.83
2019-04-07T04:51:48.595Z,41.73
2019-04-07T04:54:19.746Z,40.53
2019-04-07T04:56:51.582Z,38.53
2019-04-07T04:59:22.661Z,38.43
2019-04-07T05:01:53.857Z,39.10
2019-04-07T05:04:24.842Z,40.27
2019-04-07T05:06:55.765Z,42.37
2019-04-07T05:09:39.172Z,41.80
2019-04-07T05:11:59.541Z,39.87
2019-04-07T05:14:31.024Z,38.77
2019-04-07T05:17:03.999Z,35.73
2019-04-07T05:19:35.584Z,34.60
2019-04-07T05:22:07.160Z,38.13
2019-04-07T05:24:38.225Z,36.70
2019-04-07T05:27:09.720Z,36.97
2019-04-07T05:29:41.347Z,36.37
2019-04-07T05:32:12.908Z,34.53
2019-04-07T05:34:45.591Z,32.53
2019-04-07T05:40:02.596Z,38.87
2019-04-07T05:42:32.855Z,42.97
2019-04-07T05:45:04.109Z,37.97
2019-04-07T05:47:36.502Z,37.83
2019-04-07T05:50:08.039Z,39.67
2019-04-07T05:52:40.033Z,38.90
2019-04-07T05:55:12.564Z,41.77
2019-04-07T05:57:44.152Z,43.53
2019-04-07T06:00:16.654Z,37.67
2019-04-07T06:02:49.531Z,39.97
2019-04-07T06:05:21.193Z,39.37
2019-04-07T06:08:22.482Z,40.93
2019-04-07T06:11:02.404Z,35.13
2019-04-07T06:13:57.502Z,37.33
2019-04-07T06:16:30.212Z,31.80
2019-04-07T06:19:05.405Z,34.40
2019-04-07T06:21:33.946Z,39.70
2019-04-07T06:24:04.837Z,38.90
2019-04-07T06:26:36.999Z,37.50
2019-04-07T06:29:08.457Z,39.73
2019-04-07T06:31:40.232Z,38.23
2019-04-07T06:34:12.706Z,37.37
2019-04-07T06:36:44.170Z,32.43
2019-04-07T06:39:17.391Z,35.00
2019-04-07T06:41:47.814Z,32.50
2019-04-07T06:44:22.471Z,29.50
2019-04-07T06:47:15.949Z,30.80
2019-04-07T06:50:10.446Z,27.70
2019-04-07T06:53:11.024Z,23.03
2019-04-07T06:55:52.521Z,18.37
2019-04-07T06:59:17.721Z,16.30
2019-04-07T07:02:07.389Z,17.00
2019-04-07T07:04:57.394Z,17.83
2019-04-07T07:07:36.554Z,18.03
2019-04-07T07:10:38.999Z,18.97
2019-04-07T07:13:36.338Z,19.53
2019-04-07T07:16:29.942Z,21.10
2019-04-07T07:19:20.577Z,17.93
2019-04-07T07:22:14.778Z,16.80
2019-04-07T07:24:46.815Z,15.40
2019-04-07T07:27:18.109Z,13.30
2019-04-07T07:29:53.021Z,12.50
2019-04-07T07:32:24.552Z,12.63
2019-04-07T07:34:55.534Z,10.57
2019-04-07T07:37:26.921Z,10.90
2019-04-07T07:39:58.084Z,10.97
2019-04-07T07:42:29.041Z,10.07
2019-04-07T07:45:00.493Z,10.07
2019-04-07T07:47:31.617Z,9.93
2019-04-07T07:50:05.139Z,10.17
2019-04-07T07:52:35.219Z,10.63
2019-04-07T07:55:08.120Z,11.73
2019-04-07T07:57:40.464Z,14.00
2019-04-07T08:00:13.716Z,15.73
2019-04-07T08:02:49.109Z,13.60
2019-04-07T08:05:19.849Z,13.03
2019-04-07T08:07:51.736Z,10.40
2019-04-07T08:13:14.570Z,10.60
2019-04-07T08:15:45.825Z,10.80
2019-04-07T08:18:20.796Z,9.93
2019-04-07T08:20:53.744Z,11.77
2019-04-07T08:23:26.244Z,10.00
2019-04-07T08:25:58.845Z,10.17
2019-04-07T08:28:33.696Z,9.97
2019-04-07T08:31:03.200Z,10.77
2019-04-07T08:33:35.459Z,9.67
2019-04-07T08:36:11.126Z,10.60
2019-04-07T08:38:40.022Z,10.27
2019-04-07T08:41:12.490Z,10.53
2019-04-07T08:43:43.740Z,10.10
2019-04-07T08:46:15.309Z,10.90
2019-04-07T08:48:50.307Z,12.70
2019-04-07T08:51:20.107Z,9.50
2019-04-07T08:53:51.828Z,9.00
2019-04-07T08:56:25.729Z,11.63
2019-04-07T08:58:56.673Z,10.30
2019-04-07T09:01:29.618Z,10.23
2019-04-07T09:04:01.059Z,10.00
2019-04-07T09:06:33.190Z,9.23
2019-04-07T09:09:07.964Z,10.03
2019-04-07T09:11:41.184Z,9.43
2019-04-07T09:14:14.552Z,9.40
2019-04-07T09:22:58.277Z,12.17
2019-04-07T09:26:11.095Z,12.03
2019-04-07T09:32:05.489Z,14.40
2019-04-07T09:35:11.274Z,11.77
2019-04-07T09:37:49.189Z,10.20
2019-04-07T09:40:27.914Z,11.07
2019-04-07T09:43:18.023Z,10.20
2019-04-07T09:46:09.214Z,10.80
2019-04-07T09:49:05.234Z,9.97
2019-04-07T09:51:53.901Z,10.27
2019-04-07T09:54:33.551Z,10.13
2019-04-07T09:57:35.450Z,10.00
2019-04-07T10:00:15.952Z,10.70
2019-04-07T10:03:14.852Z,9.97
2019-04-07T10:05:52.771Z,13.73
2019-04-07T10:08:49.531Z,11.07
2019-04-07T10:11:42.725Z,10.70
2019-04-07T10:14:39.819Z,10.83
2019-04-07T10:17:47.043Z,9.57
2019-04-07T10:20:37.347Z,9.63
2019-04-07T10:23:15.113Z,9.83
2019-04-07T10:26:14.609Z,10.00
2019-04-07T10:28:51.898Z,9.27
2019-04-07T10:31:40.920Z,9.50
2019-04-07T10:34:29.564Z,9.90
2019-04-07T10:37:29.174Z,9.23
2019-04-07T10:40:24.330Z,10.80
2019-04-07T10:43:20.567Z,9.83
2019-04-07T10:46:00.620Z,10.00
2019-04-07T10:48:37.838Z,10.27
2019-04-07T10:51:18.759Z,9.30
2019-04-07T10:53:59.793Z,9.53
2019-04-07T10:57:05.108Z,9.80
2019-04-07T10:59:45.301Z,9.87
2019-04-07T11:02:28.267Z,9.37
2019-04-07T11:05:18.723Z,9.83
2019-04-07T11:08:20.745Z,9.03
2019-04-07T11:11:20.247Z,9.20
2019-04-07T11:14:05.754Z,9.90
2019-04-07T11:16:54.918Z,9.27
2019-04-07T11:19:37.766Z,9.83
2019-04-07T11:22:37.019Z,9.30
2019-04-07T11:25:27.365Z,9.77
2019-04-07T11:28:06.758Z,9.77
2019-04-07T11:30:48.434Z,9.20
2019-04-07T11:33:37.261Z,10.23
2019-04-07T11:36:25.531Z,10.13
2019-04-07T11:39:20.602Z,9.47
2019-04-07T11:42:01.070Z,10.13
2019-04-07T11:44:51.475Z,9.90
2019-04-07T11:47:56.956Z,10.20
2019-04-07T11:50:54.223Z,9.93
2019-04-07T11:53:44.325Z,9.90
2019-04-07T11:56:43.409Z,9.17
2019-04-07T11:59:27.390Z,10.37
2019-04-07T12:02:36.389Z,10.23
2019-04-07T12:05:17.254Z,9.67
2019-04-07T12:08:10.521Z,9.80
2019-04-07T12:11:02.798Z,9.77
2019-04-07T12:14:02.693Z,9.70
2019-04-07T12:17:09.343Z,9.23
2019-04-07T12:19:56.917Z,8.77
2019-04-07T12:22:38.066Z,9.30
2019-04-07T12:25:33.515Z,8.90
2019-04-07T12:28:25.856Z,9.00
2019-04-07T12:31:16.300Z,9.80
2019-04-07T12:33:57.385Z,9.93
2019-04-07T12:36:46.554Z,9.03
2019-04-07T12:39:36.065Z,9.17
2019-04-07T12:42:20.268Z,9.47
2019-04-07T12:45:20.234Z,9.43
2019-04-07T12:48:06.690Z,9.67
2019-04-07T12:50:57.304Z,9.60
2019-04-07T12:53:53.681Z,9.47
2019-04-07T12:56:57.731Z,9.87
2019-04-07T12:59:55.135Z,10.00
2019-04-07T13:02:47.473Z,9.70
2019-04-07T13:05:54.137Z,9.37
2019-04-07T13:08:51.901Z,9.67
2019-04-07T13:11:36.178Z,9.20
2019-04-07T13:14:23.414Z,9.40
2019-04-07T13:17:14.842Z,9.53
2019-04-07T13:20:11.934Z,9.87
2019-04-07T13:22:51.819Z,9.40
2019-04-07T13:25:41.859Z,9.90
2019-04-07T13:28:37.828Z,9.63
2019-04-07T13:31:15.651Z,9.57
2019-04-07T13:34:11.174Z,9.50
2019-04-07T13:40:21.768Z,9.10
2019-04-07T13:43:02.952Z,9.70
2019-04-07T13:46:02.396Z,10.10
2019-04-07T13:49:11.746Z,10.10
2019-04-07T13:52:00.415Z,9.97
2019-04-07T13:54:57.889Z,10.30
2019-04-07T13:57:48.358Z,9.13
2019-04-07T14:00:42.958Z,9.30
2019-04-07T14:03:42.516Z,9.40
2019-04-07T14:06:36.278Z,10.20
2019-04-07T14:09:31.675Z,9.63
2019-04-07T14:12:18.086Z,10.17
2019-04-07T14:15:14.312Z,8.70
2019-04-07T14:17:54.747Z,8.53
2019-04-07T14:20:40.497Z,9.60
2019-04-07T14:23:35.315Z,9.40
2019-04-07T14:26:16.797Z,8.40
2019-04-07T14:28:59.855Z,9.87
2019-04-07T14:31:59.406Z,9.10
2019-04-07T14:34:41.996Z,9.00
2019-04-07T14:37:30.855Z,10.60
2019-04-07T14:40:08.308Z,10.10
2019-04-07T14:42:55.764Z,10.07
2019-04-07T14:45:51.497Z,10.33
2019-04-07T14:48:56.876Z,10.30
2019-04-07T14:51:46.077Z,10.67
2019-04-07T14:54:57.955Z,9.97
2019-04-07T14:57:41.642Z,11.73
2019-04-07T15:00:38.566Z,10.20
2019-04-07T15:03:10.021Z,9.80
2019-04-07T15:05:43.192Z,9.80
2019-04-07T15:08:36.624Z,10.57
2019-04-07T15:11:25.162Z,11.17
2019-04-07T15:13:57.901Z,12.40
2019-04-07T15:16:29.099Z,10.60
2019-04-07T15:19:01.096Z,10.07
2019-04-07T15:21:33.031Z,10.10
2019-04-07T15:24:07.182Z,10.20
2019-04-07T15:26:37.782Z,10.73
2019-04-07T15:29:10.818Z,10.70
2019-04-07T15:31:42.770Z,9.80
2019-04-07T15:34:15.369Z,9.47
2019-04-07T15:36:48.396Z,10.07
2019-04-07T15:39:20.438Z,9.77
2019-04-07T15:41:52.235Z,11.27
2019-04-07T15:44:23.313Z,10.37
2019-04-07T15:46:54.598Z,9.73
2019-04-07T15:49:27.374Z,9.80
2019-04-07T15:52:00.572Z,10.10
2019-04-07T15:54:32.554Z,10.10
2019-04-07T15:57:05.702Z,9.50
2019-04-07T15:59:37.378Z,12.43
2019-04-07T16:02:10.983Z,10.00
2019-04-07T16:04:41.914Z,10.13
2019-04-07T16:07:13.370Z,11.83
2019-04-07T16:09:52.704Z,10.63
2019-04-07T16:12:18.254Z,10.43
2019-04-07T16:14:50.329Z,11.43
2019-04-07T16:17:21.696Z,10.93
2019-04-07T16:19:54.421Z,11.50
2019-04-07T16:22:26.246Z,15.20
2019-04-07T16:24:57.565Z,11.57
2019-04-07T16:27:29.350Z,19.30
2019-04-07T16:30:01.128Z,13.07
2019-04-07T16:32:33.999Z,11.60
2019-04-07T16:35:06.901Z,14.77
2019-04-07T16:37:37.965Z,12.03
2019-04-07T16:40:10.805Z,11.00
2019-04-07T16:42:45.631Z,11.03
2019-04-07T16:45:17.842Z,11.07
2019-04-07T16:47:47.812Z,10.97
2019-04-07T16:50:20.663Z,11.47
2019-04-07T16:53:07.642Z,11.57
2019-04-07T16:55:41.791Z,11.37
2019-04-07T16:58:14.412Z,11.67
2019-04-07T17:00:49.704Z,12.50
2019-04-07T17:03:21.803Z,12.83
2019-04-07T17:05:57.513Z,12.10
2019-04-07T17:08:28.716Z,13.30
2019-04-07T17:11:04.467Z,12.90
2019-04-07T17:13:40.784Z,13.07
2019-04-07T17:16:10.131Z,15.63
2019-04-07T17:18:43.687Z,15.23
2019-04-07T17:21:20.413Z,18.07
2019-04-07T17:23:55.368Z,17.13
2019-04-07T17:26:24.866Z,17.90
2019-04-07T17:28:58.047Z,17.70
2019-04-07T17:31:32.064Z,17.17
2019-04-07T17:34:04.921Z,16.73
2019-04-07T17:36:37.528Z,15.50
2019-04-07T17:39:31.665Z,17.27
2019-04-07T17:42:03.403Z,23.27
2019-04-07T17:44:56.337Z,25.50
2019-04-07T17:47:45.193Z,24.30
2019-04-07T17:50:35.715Z,22.13
2019-04-07T17:53:25.311Z,26.13
2019-04-07T17:56:08.711Z,21.10
2019-04-07T17:58:54.932Z,27.60
2019-04-07T18:01:44.804Z,25.40
2019-04-07T18:04:38.953Z,24.73
2019-04-07T18:07:30.174Z,25.10
2019-04-07T18:10:26.099Z,31.43
2019-04-07T18:13:22.807Z,27.27
2019-04-07T18:16:31.813Z,23.73
2019-04-07T18:19:27.116Z,23.27
2019-04-07T18:22:19.823Z,22.67
2019-04-07T18:25:01.860Z,22.23
2019-04-07T18:27:56.743Z,24.37
2019-04-07T18:30:56.218Z,25.37
2019-04-07T18:36:34.724Z,26.63
2019-04-07T18:39:21.871Z,28.17
2019-04-07T18:42:17.780Z,26.87
2019-04-07T18:45:12.190Z,32.00
2019-04-07T18:47:55.740Z,28.77
2019-04-07T18:50:31.460Z,31.83
2019-04-07T18:53:27.690Z,52.37
2019-04-07T18:56:16.222Z,59.23
2019-04-07T18:59:09.949Z,60.30
2019-04-07T19:02:18.228Z,47.87
2019-04-07T19:05:08.252Z,51.27
2019-04-07T19:08:07.274Z,51.57
2019-04-07T19:11:08.235Z,46.83
2019-04-07T19:14:01.844Z,45.03
2019-04-07T19:16:50.720Z,37.70
2019-04-07T19:19:40.063Z,46.03
2019-04-07T19:22:36.653Z,38.73
2019-04-07T19:25:27.309Z,40.33
2019-04-07T19:28:23.366Z,43.30
2019-04-07T19:31:16.232Z,50.17
2019-04-07T19:42:52.831Z,43.63
2019-04-07T19:45:37.106Z,38.43
2019-04-07T19:48:32.706Z,40.20
2019-04-07T19:51:34.667Z,44.47
2019-04-07T19:54:16.036Z,43.97
2019-04-07T19:57:09.748Z,39.67
2019-04-07T19:59:51.005Z,50.57
2019-04-07T20:02:40.920Z,44.70
2019-04-07T20:05:29.954Z,42.13
2019-04-07T20:08:20.506Z,40.67
2019-04-07T20:11:09.739Z,43.13
2019-04-07T20:14:00.704Z,44.07
2019-04-07T20:16:47.442Z,46.83
2019-04-07T20:19:38.272Z,45.70
2019-04-07T20:22:23.084Z,46.93
2019-04-07T20:25:17.585Z,47.70
2019-04-07T20:28:22.941Z,48.03
2019-04-07T20:31:10.531Z,52.57
2019-04-07T20:34:03.938Z,65.63
2019-04-07T20:37:05.124Z,54.43
2019-04-07T20:40:13.882Z,49.80
2019-04-07T20:43:16.667Z,51.03
2019-04-07T20:46:13.176Z,55.50
2019-04-07T20:49:00.467Z,60.00
2019-04-07T20:52:00.680Z,59.97
2019-04-07T20:55:08.065Z,58.53
2019-04-07T20:57:46.465Z,66.13
2019-04-07T21:00:58.349Z,64.57
2019-04-07T21:03:37.954Z,60.73
2019-04-07T21:06:27.493Z,63.30
2019-04-07T21:12:42.790Z,60.77
2019-04-07T21:15:49.802Z,61.17
2019-04-07T21:18:43.166Z,65.70
2019-04-07T21:21:32.259Z,61.90
2019-04-07T21:24:21.263Z,65.13
2019-04-07T21:27:12.165Z,61.10
2019-04-07T21:29:59.123Z,65.20
2019-04-07T21:32:48.547Z,66.17
2019-04-07T21:35:36.669Z,65.50
2019-04-07T21:38:30.205Z,63.57
2019-04-07T21:41:27.319Z,60.67
2019-04-07T21:44:15.726Z,65.70
2019-04-07T21:47:06.333Z,64.50
2019-04-07T21:49:49.198Z,69.83
2019-04-07T21:52:39.256Z,62.07
2019-04-07T21:55:45.500Z,60.03
2019-04-07T21:58:39.849Z,61.50
2019-04-07T22:01:37.701Z,65.53
2019-04-07T22:04:11.012Z,64.50
2019-04-07T22:06:58.933Z,60.87
2019-04-07T22:09:53.101Z,60.10
2019-04-07T22:12:28.644Z,61.67
2019-04-07T22:14:57.542Z,66.63
2019-04-07T22:17:32.654Z,64.17
2019-04-07T22:20:01.177Z,59.77
2019-04-07T22:22:35.260Z,62.33
2019-04-07T22:25:08.684Z,62.97
2019-04-07T22:27:39.237Z,60.57
2019-04-07T22:30:11.726Z,62.83
2019-04-07T22:32:44.773Z,65.13
2019-04-07T22:35:16.705Z,64.47
2019-04-07T22:37:49.873Z,62.13
2019-04-07T22:40:21.383Z,61.50
2019-04-07T22:42:52.497Z,64.73
2019-04-07T22:45:26.394Z,63.93
2019-04-07T22:47:57.218Z,67.23
2019-04-07T22:50:28.460Z,65.47
2019-04-07T22:53:01.626Z,68.47
2019-04-07T22:55:34.289Z,65.60
2019-04-07T22:58:05.574Z,65.80
2019-04-07T23:00:37.129Z,62.53
2019-04-07T23:03:08.561Z,59.30
2019-04-07T23:05:39.605Z,63.40
2019-04-07T23:08:10.727Z,63.73
2019-04-07T23:10:42.787Z,58.87
2019-04-07T23:13:13.804Z,60.93
2019-04-07T23:15:46.090Z,57.20
2019-04-07T23:18:17.891Z,60.13
2019-04-07T23:20:48.828Z,59.43
2019-04-07T23:23:19.909Z,62.80
2019-04-07T23:25:51.452Z,63.97
2019-04-07T23:28:22.928Z,57.40
2019-04-07T23:30:54.853Z,55.37
2019-04-07T23:33:26.103Z,56.20
2019-04-07T23:35:57.485Z,57.37
2019-04-07T23:38:28.929Z,56.47
2019-04-07T23:41:00.038Z,54.17
2019-04-07T23:43:31.086Z,53.33
2019-04-07T23:46:02.313Z,54.03
2019-04-07T23:48:33.243Z,59.80
2019-04-07T23:51:04.241Z,70.70
2019-04-07T23:54:27.407Z,60.63
2019-04-07T23:56:58.442Z,59.43
2019-04-07T23:59:30.252Z,61.93
